Time;durP1;ratioP1;P1;durP2;ratioP2;P2;SDS_P1;SDS_P2;PMS_P1;PMS_P2;Temp;Humidity;BMP_temperature;BMP_pressure;BME280_temperature;BME280_humidity;BME280_pressure;Samples;Min_cycle;Max_cycle;Signal;HPM_P1;HPM_P2
2022/04/12 00:00:26;;;;;;;;;;;;;;;;;;5127018;27;19975;-74
2022/04/12 00:02:52;;;;;;;;;;;;;;;;;;5129255;27;19972;-73
2022/04/12 00:05:18;;;;;;;;;;;;;;;;;;5125023;27;20459;-74
2022/04/12 00:07:44;;;;;;;;;;;;;;;;;;5129153;27;19986;-71
2022/04/12 00:10:10;;;;;;;;;;;;;;;;;;5129709;28;19973;-75
2022/04/12 00:12:37;;;;;;;;;;;;;;;;;;5128424;27;20359;-73
2022/04/12 00:15:04;;;;;;;;;;;;;;;;;;5130047;27;19999;-75
2022/04/12 00:20:14;;;;;;;;;;;;;;;;;;5119573;27;20006;-69
2022/04/12 00:22:40;;;;;;;;;;;;;;;;;;5122184;28;19975;-69
2022/04/12 00:25:09;;;;;;;;;;;;;;;;;;5130650;28;19991;-69
2022/04/12 00:27:35;;;;;;;;;;;;;;;;;;5128367;28;20010;-69
2022/04/12 00:30:01;;;;;;;;;;;;;;;;;;5128624;28;19971;-69
2022/04/12 00:32:27;;;;;;;;;;;;;;;;;;5123991;28;20003;-70
2022/04/12 00:34:53;;;;;;;;;;;;;;;;;;5127363;28;19994;-69
2022/04/12 00:37:19;;;;;;;;;;;;;;;;;;5124942;28;19974;-70
2022/04/12 00:39:45;;;;;;;;;;;;;;;;;;5121431;28;20172;-70
2022/04/12 00:42:12;;;;;;;;;;;;;;;;;;5124227;28;20006;-70
2022/04/12 00:44:38;;;;;;;;;;;;;;;;;;5125129;28;20015;-71
2022/04/12 00:47:04;;;;;;;;;;;;;;;;;;5125277;27;20038;-72
2022/04/12 00:49:30;;;;;;;;;;;;;;;;;;5121135;28;19978;-67
2022/04/12 00:51:56;;;;;;;;;;;;;;;;;;5122888;28;19977;-69
2022/04/12 00:54:23;;;;;;;;;;;;;;;;;;5126243;28;19990;-67
2022/04/12 00:56:49;;;;;;;;;;;;;;;;;;5125739;28;20023;-68
2022/04/12 00:59:15;;;;;;;;;;;;;;;;;;5123931;28;19979;-68
2022/04/12 01:01:42;;;;;;;;;;;;;;;;;;5123185;28;19986;-68
2022/04/12 01:04:08;;;;;;;;;;;;;;;;;;5122951;28;19993;-68
2022/04/12 01:06:34;;;;;;;;;;;;;;;;;;5122078;28;19971;-68
2022/04/12 01:09:04;;;;;;;;;;;;;;;;;;5120561;27;20139;-67
2022/04/12 01:11:30;;;;;;;;;;;;;;;;;;5116682;28;19975;-67
2022/04/12 01:13:56;;;;;;;;;;;;;;;;;;5116813;27;19975;-67
2022/04/12 01:16:22;;;;;;;;;;;;;;;;;;5111749;27;19995;-67
2022/04/12 01:18:49;;;;;;;;;;;;;;;;;;5104352;28;19975;-67
2022/04/12 01:21:15;;;;;;;;;;;;;;;;;;5109345;28;19979;-66
2022/04/12 01:23:41;;;;;;;;;;;;;;;;;;5110218;28;20051;-66
2022/04/12 01:26:07;;;;;;;;;;;;;;;;;;5107188;28;19987;-68
2022/04/12 01:28:34;;;;;;;;;;;;;;;;;;5112900;27;20342;-68
2022/04/12 01:31:00;;;;;;;;;;;;;;;;;;5108408;28;19982;-68
2022/04/12 01:33:26;;;;;;;;;;;;;;;;;;5111127;28;19975;-67
2022/04/12 01:35:52;;;;;;;;;;;;;;;;;;5111879;28;20347;-67
2022/04/12 01:38:18;;;;;;;;;;;;;;;;;;5107980;28;20443;-67
2022/04/12 01:40:44;;;;;;;;;;;;;;;;;;5107030;28;19980;-67
2022/04/12 01:43:11;;;;;;;;;;;;;;;;;;5109806;28;19972;-67
2022/04/12 01:45:37;;;;;;;;;;;;;;;;;;5105466;28;20792;-66
2022/04/12 01:48:03;;;;;;;;;;;;;;;;;;5109487;28;19980;-67
2022/04/12 01:50:29;;;;;;;;;;;;;;;;;;5109436;28;19978;-67
2022/04/12 01:52:55;;;;;;;;;;;;;;;;;;5110837;28;19971;-66
2022/04/12 01:55:22;;;;;;;;;;;;;;;;;;5112624;28;19995;-66
2022/04/12 01:57:50;;;;;;;;;;;;;;;;;;5116852;28;19970;-68
2022/04/12 02:00:16;;;;;;;;;;;;;;;;;;5119449;28;20042;-67
2022/04/12 02:02:42;;;;;;;;;;;;;;;;;;5120930;27;19971;-66
2022/04/12 02:05:08;;;;;;;;;;;;;;;;;;5118983;28;20302;-66
2022/04/12 02:07:35;;;;;;;;;;;;;;;;;;5121405;28;20078;-66
2022/04/12 02:10:01;;;;;;;;;;;;;;;;;;5124460;28;20512;-64
2022/04/12 02:12:27;;;;;;;;;;;;;;;;;;5118577;28;19986;-63
2022/04/12 02:14:53;;;;;;;;;;;;;;;;;;5122533;22;19991;-63
2022/04/12 02:17:19;;;;;;;;;;;;;;;;;;5094656;28;19987;-63
2022/04/12 02:19:45;;;;;;;;;;;;;;;;;;5100732;28;19978;-64
2022/04/12 02:22:11;;;;;;;;;;;;;;;;;;5088863;28;20410;-63
2022/04/12 02:24:38;;;;;;;;;;;;;;;;;;5097845;28;19990;-66
2022/04/12 02:27:04;;;;;;;;;;;;;;;;;;5098291;28;19971;-64
2022/04/12 02:29:30;;;;;;;;;;;;;;;;;;5094914;28;19974;-65
2022/04/12 02:31:56;;;;;;;;;;;;;;;;;;5103142;28;19972;-64
2022/04/12 02:34:22;;;;;;;;;;;;;;;;;;5099698;28;20006;-65
2022/04/12 02:36:49;;;;;;;;;;;;;;;;;;5092740;28;19989;-60
2022/04/12 02:39:15;;;;;;;;;;;;;;;;;;5093170;28;19982;-60
2022/04/12 02:41:41;;;;;;;;;;;;;;;;;;5094608;28;19986;-61
2022/04/12 02:44:07;;;;;;;;;;;;;;;;;;5094965;28;19976;-61
2022/04/12 02:46:33;;;;;;;;;;;;;;;;;;5097930;28;19975;-60
2022/04/12 02:48:59;;;;;;;;;;;;;;;;;;5100482;28;19980;-61
2022/04/12 02:51:25;;;;;;;;;;;;;;;;;;5101717;28;20408;-60
2022/04/12 02:53:51;;;;;;;;;;;;;;;;;;5102089;28;20085;-64
2022/04/12 02:56:18;;;;;;;;;;;;;;;;;;5102036;28;20015;-64
2022/04/12 02:58:44;;;;;;;;;;;;;;;;;;5097704;28;19978;-62
2022/04/12 03:01:10;;;;;;;;;;;;;;;;;;5098399;28;19979;-62
2022/04/12 03:03:36;;;;;;;;;;;;;;;;;;5105637;28;20408;-61
2022/04/12 03:06:02;;;;;;;;;;;;;;;;;;5099523;28;20358;-62
2022/04/12 03:08:28;;;;;;;;;;;;;;;;;;5103843;28;20144;-61
2022/04/12 03:10:55;;;;;;;;;;;;;;;;;;5099863;28;19972;-61
2022/04/12 03:13:21;;;;;;;;;;;;;;;;;;5097191;28;19979;-62
2022/04/12 03:15:47;;;;;;;;;;;;;;;;;;5099508;28;20230;-64
2022/04/12 03:18:16;;;;;;;;;;;;;;;;;;5103886;28;20428;-62
2022/04/12 03:20:42;;;;;;;;;;;;;;;;;;5100872;28;19977;-60
2022/04/12 03:23:08;;;;;;;;;;;;;;;;;;5096228;28;19975;-60
2022/04/12 03:25:34;;;;;;;;;;;;;;;;;;5102709;28;19996;-60
2022/04/12 03:28:00;;;;;;;;;;;;;;;;;;5100714;28;19983;-63
2022/04/12 03:30:26;;;;;;;;;;;;;;;;;;5100129;28;19978;-62
2022/04/12 03:32:53;;;;;;;;;;;;;;;;;;5097739;28;19979;-61
2022/04/12 03:35:19;;;;;;;;;;;;;;;;;;5108298;28;20477;-61
2022/04/12 03:37:45;;;;;;;;;;;;;;;;;;5101862;28;20082;-61
2022/04/12 03:40:11;;;;;;;;;;;;;;;;;;5107486;28;19995;-62
2022/04/12 03:42:37;;;;;;;;;;;;;;;;;;5101822;28;19980;-62
2022/04/12 03:45:03;;;;;;;;;;;;;;;;;;5097628;28;19976;-61
2022/04/12 03:47:29;;;;;;;;;;;;;;;;;;5098404;28;20392;-63
2022/04/12 03:49:56;;;;;;;;;;;;;;;;;;5100438;28;19993;-67
2022/04/12 03:52:22;;;;;;;;;;;;;;;;;;5103180;28;19983;-64
2022/04/12 03:54:48;;;;;;;;;;;;;;;;;;5100978;28;19991;-63
2022/04/12 03:57:14;;;;;;;;;;;;;;;;;;5099269;28;19994;-63
2022/04/12 03:59:40;;;;;;;;;;;;;;;;;;5099393;28;19975;-64
2022/04/12 04:02:06;;;;;;;;;;;;;;;;;;5101503;28;19975;-63
2022/04/12 04:04:32;;;;;;;;;;;;;;;;;;5097174;28;20002;-63
2022/04/12 04:06:59;;;;;;;;;;;;;;;;;;5097559;28;19979;-66
2022/04/12 04:09:25;;;;;;;;;;;;;;;;;;5100435;28;19980;-66
2022/04/12 04:11:51;;;;;;;;;;;;;;;;;;5102882;28;20077;-67
2022/04/12 04:14:17;;;;;;;;;;;;;;;;;;5101786;28;19974;-65
2022/04/12 04:16:43;;;;;;;;;;;;;;;;;;5097320;28;19984;-69
2022/04/12 04:19:09;;;;;;;;;;;;;;;;;;5102039;28;19999;-59
2022/04/12 04:21:36;;;;;;;;;;;;;;;;;;5100999;28;20030;-64
2022/04/12 04:24:02;;;;;;;;;;;;;;;;;;5096330;28;19971;-64
2022/04/12 04:26:28;;;;;;;;;;;;;;;;;;5098024;28;19928;-67
2022/04/12 04:28:54;;;;;;;;;;;;;;;;;;5104450;28;19990;-66
2022/04/12 04:31:20;;;;;;;;;;;;;;;;;;5097830;28;19971;-65
2022/04/12 04:33:46;;;;;;;;;;;;;;;;;;5098737;28;20086;-64
2022/04/12 04:36:13;;;;;;;;;;;;;;;;;;5099449;28;19998;-64
2022/04/12 04:38:39;;;;;;;;;;;;;;;;;;5101470;28;19978;-65
2022/04/12 04:41:05;;;;;;;;;;;;;;;;;;5099734;28;20480;-63
2022/04/12 04:43:31;;;;;;;;;;;;;;;;;;5095733;28;20385;-65
2022/04/12 04:45:57;;;;;;;;;;;;;;;;;;5099985;28;20431;-65
2022/04/12 04:48:23;;;;;;;;;;;;;;;;;;5102005;28;19974;-66
2022/04/12 04:50:49;;;;;;;;;;;;;;;;;;5099249;28;19971;-64
2022/04/12 04:53:16;;;;;;;;;;;;;;;;;;5098788;28;19971;-65
2022/04/12 04:55:42;;;;;;;;;;;;;;;;;;5103693;28;19988;-65
2022/04/12 04:58:08;;;;;;;;;;;;;;;;;;5093151;28;20481;-64
2022/04/12 05:00:34;;;;;;;;;;;;;;;;;;5096181;28;20651;-70
2022/04/12 05:03:01;;;;;;;;;;;;;;;;;;5104320;28;20069;-70
2022/04/12 05:05:27;;;;;;;;;;;;;;;;;;5099441;28;19998;-71
2022/04/12 05:07:53;;;;;;;;;;;;;;;;;;5099010;28;19981;-71
2022/04/12 05:10:19;;;;;;;;;;;;;;;;;;5103498;28;19972;-70
2022/04/12 05:12:45;;;;;;;;;;;;;;;;;;5101777;28;20049;-70
2022/04/12 05:15:11;;;;;;;;;;;;;;;;;;5102474;28;19995;-70
2022/04/12 05:17:37;;;;;;;;;;;;;;;;;;4393920;28;10000704;-71
2022/04/12 05:20:04;;;;;;;;;;;;;;;;;;5096521;28;19975;-70
2022/04/12 05:22:30;;;;;;;;;;;;;;;;;;5095934;28;19986;-70
2022/04/12 05:24:56;;;;;;;;;;;;;;;;;;5097431;28;19995;-70
2022/04/12 05:27:22;;;;;;;;;;;;;;;;;;5097626;28;20311;-70
2022/04/12 05:29:48;;;;;;;;;;;;;;;;;;5099843;28;19974;-70
2022/04/12 05:32:15;;;;;;;;;;;;;;;;;;5097230;28;20156;-69
2022/04/12 05:34:41;;;;;;;;;;;;;;;;;;5095815;28;19990;-70
2022/04/12 05:37:07;;;;;;;;;;;;;;;;;;5093869;28;19987;-70
2022/04/12 05:39:34;;;;;;;;;;;;;;;;;;5098663;28;19992;-70
2022/04/12 05:42:00;;;;;;;;;;;;;;;;;;5094164;28;19983;-70
2022/04/12 05:44:26;;;;;;;;;;;;;;;;;;5096903;28;20036;-70
2022/04/12 05:46:52;;;;;;;;;;;;;;;;;;5097261;28;20070;-70
2022/04/12 05:49:18;;;;;;;;;;;;;;;;;;5100235;28;19974;-70
2022/04/12 05:51:44;;;;;;;;;;;;;;;;;;5097991;28;20360;-70
2022/04/12 05:54:11;;;;;;;;;;;;;;;;;;5092329;28;20354;-71
2022/04/12 05:56:37;;;;;;;;;;;;;;;;;;5097954;28;20375;-70
2022/04/12 05:59:03;;;;;;;;;;;;;;;;;;5092112;28;19971;-70
2022/04/12 06:01:30;;;;;;;;;;;;;;;;;;5094465;28;19979;-70
2022/04/12 06:03:58;;;;;;;;;;;;;;;;;;5096512;28;20828;-70
2022/04/12 06:06:24;;;;;;;;;;;;;;;;;;5097538;28;20068;-70
2022/04/12 06:08:51;;;;;;;;;;;;;;;;;;5100692;28;20039;-70
2022/04/12 06:11:17;;;;;;;;;;;;;;;;;;5096750;28;20346;-70
2022/04/12 06:13:43;;;;;;;;;;;;;;;;;;5095726;28;19980;-70
2022/04/12 06:16:09;;;;;;;;;;;;;;;;;;5097290;28;20004;-70
2022/04/12 06:18:35;;;;;;;;;;;;;;;;;;5092290;28;19994;-71
2022/04/12 06:21:01;;;;;;;;;;;;;;;;;;5095826;28;19983;-70
2022/04/12 06:23:28;;;;;;;;;;;;;;;;;;5091714;28;19982;-71
2022/04/12 06:25:54;;;;;;;;;;;;;;;;;;5091404;27;19990;-70
2022/04/12 06:28:20;;;;;;;;;;;;;;;;;;5093885;28;20047;-70
2022/04/12 06:30:47;;;;;;;;;;;;;;;;;;5098324;28;19994;-69
2022/04/12 06:33:14;;;;;;;;;;;;;;;;;;5098205;28;19986;-69
2022/04/12 06:35:40;;;;;;;;;;;;;;;;;;5093151;28;19994;-70
2022/04/12 06:38:06;;;;;;;;;;;;;;;;;;5095538;28;20363;-71
2022/04/12 06:40:34;;;;;;;;;;;;;;;;;;5090876;28;19979;-71
2022/04/12 06:43:00;;;;;;;;;;;;;;;;;;5090820;28;19982;-70
2022/04/12 06:45:26;;;;;;;;;;;;;;;;;;5090672;28;20403;-72
2022/04/12 06:47:53;;;;;;;;;;;;;;;;;;5100324;28;19978;-72
2022/04/12 06:50:20;;;;;;;;;;;;;;;;;;5095602;28;19978;-71
2022/04/12 06:52:46;;;;;;;;;;;;;;;;;;5098279;28;20062;-71
2022/04/12 06:55:12;;;;;;;;;;;;;;;;;;5093829;28;19990;-69
2022/04/12 06:57:38;;;;;;;;;;;;;;;;;;5096991;28;20387;-70
2022/04/12 07:00:05;;;;;;;;;;;;;;;;;;5094755;28;19975;-70
2022/04/12 07:02:31;;;;;;;;;;;;;;;;;;5095348;28;19985;-71
2022/04/12 07:04:57;;;;;;;;;;;;;;;;;;5094472;28;19964;-71
2022/04/12 07:07:23;;;;;;;;;;;;;;;;;;5100341;28;20001;-70
2022/04/12 07:09:49;;;;;;;;;;;;;;;;;;5094093;28;19983;-70
2022/04/12 07:12:15;;;;;;;;;;;;;;;;;;5094502;28;20096;-71
2022/04/12 07:14:41;;;;;;;;;;;;;;;;;;5093239;28;20209;-69
2022/04/12 07:17:08;;;;;;;;;;;;;;;;;;5094927;28;20469;-69
2022/04/12 07:19:34;;;;;;;;;;;;;;;;;;5099392;28;20332;-71
2022/04/12 07:22:00;;;;;;;;;;;;;;;;;;5098096;28;19981;-71
2022/04/12 07:24:26;;;;;;;;;;;;;;;;;;5093983;28;19997;-70
2022/04/12 07:26:52;;;;;;;;;;;;;;;;;;5097877;28;20443;-72
2022/04/12 07:29:18;;;;;;;;;;;;;;;;;;5094016;28;20456;-70
2022/04/12 07:31:45;;;;;;;;;;;;;;;;;;5095959;28;20074;-69
2022/04/12 07:34:11;;;;;;;;;;;;;;;;;;5092597;28;20434;-71
2022/04/12 07:36:39;;;;;;;;;;;;;;;;;;5097855;28;20067;-70
2022/04/12 07:39:05;;;;;;;;;;;;;;;;;;5092652;28;20486;-69
2022/04/12 07:41:32;;;;;;;;;;;;;;;;;;5099656;28;19972;-69
2022/04/12 07:43:58;;;;;;;;;;;;;;;;;;5099075;28;19968;-69
2022/04/12 07:46:24;;;;;;;;;;;;;;;;;;5101762;28;20001;-69
2022/04/12 07:48:50;;;;;;;;;;;;;;;;;;5098681;28;19977;-70
2022/04/12 07:51:16;;;;;;;;;;;;;;;;;;5095605;28;19971;-70
2022/04/12 07:53:42;;;;;;;;;;;;;;;;;;5093622;28;19968;-70
2022/04/12 07:56:08;;;;;;;;;;;;;;;;;;5099085;28;19992;-70
2022/04/12 07:58:35;;;;;;;;;;;;;;;;;;5091381;28;20355;-70
2022/04/12 08:01:01;;;;;;;;;;;;;;;;;;5094940;28;20072;-70
2022/04/12 08:03:27;;;;;;;;;;;;;;;;;;5105500;28;19981;-70
2022/04/12 08:05:53;;;;;;;;;;;;;;;;;;5098623;28;19987;-70
2022/04/12 08:08:19;;;;;;;;;;;;;;;;;;5100865;28;19978;-70
2022/04/12 08:10:45;;;;;;;;;;;;;;;;;;5098686;28;19984;-70
2022/04/12 08:13:11;;;;;;;;;;;;;;;;;;5098092;28;20094;-70
2022/04/12 08:15:38;;;;;;;;;;;;;;;;;;5093004;28;19992;-68
2022/04/12 08:18:04;;;;;;;;;;;;;;;;;;5086672;22;19989;-71
2022/04/12 08:20:30;;;;;;;;;;;;;;;;;;5053424;28;19964;-71
2022/04/12 08:22:56;;;;;;;;;;;;;;;;;;5051551;28;19961;-72
2022/04/12 08:25:22;;;;;;;;;;;;;;;;;;5050040;28;19996;-70
2022/04/12 08:27:48;;;;;;;;;;;;;;;;;;5046736;28;19976;-70
2022/04/12 08:30:14;;;;;;;;;;;;;;;;;;5044264;28;20468;-72
2022/04/12 08:32:41;;;;;;;;;;;;;;;;;;5046467;28;19979;-70
2022/04/12 08:35:07;;;;;;;;;;;;;;;;;;5045852;28;20479;-70
2022/04/12 08:37:33;;;;;;;;;;;;;;;;;;5044595;28;20006;-70
2022/04/12 08:39:59;;;;;;;;;;;;;;;;;;5043736;28;19975;-71
2022/04/12 08:42:25;;;;;;;;;;;;;;;;;;5045039;28;19973;-70
2022/04/12 08:44:51;;;;;;;;;;;;;;;;;;5043932;28;20476;-72
2022/04/12 08:47:18;;;;;;;;;;;;;;;;;;5042917;28;20394;-70
2022/04/12 08:49:44;;;;;;;;;;;;;;;;;;5043030;28;20324;-71
2022/04/12 08:52:11;;;;;;;;;;;;;;;;;;5040504;28;19955;-70
2022/04/12 08:54:37;;;;;;;;;;;;;;;;;;5042044;28;19972;-71
2022/04/12 08:57:03;;;;;;;;;;;;;;;;;;5045860;28;19975;-70
2022/04/12 08:59:29;;;;;;;;;;;;;;;;;;5039774;28;19978;-71
2022/04/12 09:01:55;;;;;;;;;;;;;;;;;;5041825;28;19948;-71
2022/04/12 09:04:22;;;;;;;;;;;;;;;;;;5042761;28;20060;-70
2022/04/12 09:06:48;;;;;;;;;;;;;;;;;;5041234;28;20004;-70
2022/04/12 09:09:14;;;;;;;;;;;;;;;;;;5037971;28;19946;-71
2022/04/12 09:11:40;;;;;;;;;;;;;;;;;;5040853;28;19935;-70
2022/04/12 09:14:06;;;;;;;;;;;;;;;;;;5042455;28;20550;-70
2022/04/12 09:16:33;;;;;;;;;;;;;;;;;;5046101;28;19952;-69
2022/04/12 09:18:59;;;;;;;;;;;;;;;;;;5044634;28;20472;-70
2022/04/12 09:21:27;;;;;;;;;;;;;;;;;;5044250;28;19970;-70
2022/04/12 09:23:53;;;;;;;;;;;;;;;;;;5041699;28;19945;-71
2022/04/12 09:26:19;;;;;;;;;;;;;;;;;;5042418;28;19958;-70
2022/04/12 09:28:45;;;;;;;;;;;;;;;;;;5044218;28;20285;-70
2022/04/12 09:31:11;;;;;;;;;;;;;;;;;;5046438;28;20203;-69
2022/04/12 09:33:38;;;;;;;;;;;;;;;;;;5056225;28;20027;-70
2022/04/12 09:36:05;;;;;;;;;;;;;;;;;;5066468;28;19955;-70
2022/04/12 09:38:32;;;;;;;;;;;;;;;;;;5063865;28;20029;-70
2022/04/12 09:40:58;;;;;;;;;;;;;;;;;;5067061;28;19995;-69
2022/04/12 09:43:24;;;;;;;;;;;;;;;;;;5061190;28;19961;-69
2022/04/12 09:45:50;;;;;;;;;;;;;;;;;;5057481;28;19956;-70
2022/04/12 09:48:16;;;;;;;;;;;;;;;;;;5056162;28;19940;-69
2022/04/12 09:50:42;;;;;;;;;;;;;;;;;;5057967;28;19971;-69
2022/04/12 09:53:09;;;;;;;;;;;;;;;;;;5057412;28;19958;-69
2022/04/12 09:55:36;;;;;;;;;;;;;;;;;;5054105;28;19959;-71
2022/04/12 09:58:02;;;;;;;;;;;;;;;;;;5054909;28;19929;-70
2022/04/12 10:00:29;;;;;;;;;;;;;;;;;;5051411;28;19963;-70
2022/04/12 10:02:56;;;;;;;;;;;;;;;;;;5044684;28;20374;-70
2022/04/12 10:05:22;;;;;;;;;;;;;;;;;;5041063;28;19967;-69
2022/04/12 10:07:48;;;;;;;;;;;;;;;;;;5048429;28;19958;-69
2022/04/12 10:10:19;;;;;;;;;;;;;;;;;;5043620;28;19929;-70
2022/04/12 10:12:45;;;;;;;;;;;;;;;;;;5040907;28;20516;-69
2022/04/12 10:15:11;;;;;;;;;;;;;;;;;;5044231;28;19965;-70
2022/04/12 10:17:37;;;;;;;;;;;;;;;;;;5041519;28;19951;-70
2022/04/12 10:20:03;;;;;;;;;;;;;;;;;;5039436;28;20242;-69
2022/04/12 10:22:30;;;;;;;;;;;;;;;;;;5044452;28;20426;-69
2022/04/12 10:24:56;;;;;;;;;;;;;;;;;;5044290;28;19958;-70
2022/04/12 10:27:23;;;;;;;;;;;;;;;;;;5046553;28;19945;-70
2022/04/12 10:29:49;;;;;;;;;;;;;;;;;;5041998;28;19943;-69
2022/04/12 10:32:15;;;;;;;;;;;;;;;;;;5039411;28;19941;-69
2022/04/12 10:34:41;;;;;;;;;;;;;;;;;;5038655;28;20081;-68
2022/04/12 10:37:08;;;;;;;;;;;;;;;;;;5044905;28;19948;-70
2022/04/12 10:39:34;;;;;;;;;;;;;;;;;;5042799;28;19970;-69
2022/04/12 10:42:00;;;;;;;;;;;;;;;;;;5042642;28;19951;-69
2022/04/12 10:44:26;;;;;;;;;;;;;;;;;;5042384;28;20060;-70
2022/04/12 10:46:52;;;;;;;;;;;;;;;;;;5036122;28;19951;-70
2022/04/12 10:49:19;;;;;;;;;;;;;;;;;;5040717;28;20005;-70
2022/04/12 10:51:46;;;;;;;;;;;;;;;;;;5038885;28;20372;-69
2022/04/12 10:54:12;;;;;;;;;;;;;;;;;;5038145;28;19957;-69
2022/04/12 10:56:38;;;;;;;;;;;;;;;;;;5042878;28;19960;-68
2022/04/12 10:59:04;;;;;;;;;;;;;;;;;;5043448;28;19992;-69
2022/04/12 11:01:30;;;;;;;;;;;;;;;;;;5044507;28;19940;-68
2022/04/12 11:03:57;;;;;;;;;;;;;;;;;;5045411;28;19957;-69
2022/04/12 11:06:23;;;;;;;;;;;;;;;;;;5045552;28;19990;-69
2022/04/12 11:08:49;;;;;;;;;;;;;;;;;;5045163;28;19929;-68
2022/04/12 11:11:15;;;;;;;;;;;;;;;;;;5045252;28;19929;-68
2022/04/12 11:13:42;;;;;;;;;;;;;;;;;;5050042;28;20020;-68
2022/04/12 11:16:08;;;;;;;;;;;;;;;;;;5051134;28;19939;-68
2022/04/12 11:18:34;;;;;;;;;;;;;;;;;;5049053;28;20293;-68
2022/04/12 11:21:00;;;;;;;;;;;;;;;;;;5049246;28;19929;-68
2022/04/12 11:23:26;;;;;;;;;;;;;;;;;;5049135;28;19929;-68
2022/04/12 11:25:52;;;;;;;;;;;;;;;;;;5049445;28;19963;-68
2022/04/12 11:28:18;;;;;;;;;;;;;;;;;;5048604;28;19941;-68
2022/04/12 11:30:45;;;;;;;;;;;;;;;;;;5049202;28;19928;-68
2022/04/12 11:33:11;;;;;;;;;;;;;;;;;;5049408;28;20438;-68
2022/04/12 11:35:39;;;;;;;;;;;;;;;;;;5045795;28;20366;-69
2022/04/12 11:38:05;;;;;;;;;;;;;;;;;;5048617;28;20023;-67
2022/04/12 11:40:31;;;;;;;;;;;;;;;;;;5044730;28;19928;-68
2022/04/12 11:42:58;;;;;;;;;;;;;;;;;;5049014;28;19929;-68
2022/04/12 11:45:24;;;;;;;;;;;;;;;;;;5048760;28;19928;-68
2022/04/12 11:47:51;;;;;;;;;;;;;;;;;;5048511;28;19924;-68
2022/04/12 11:50:17;;;;;;;;;;;;;;;;;;5048658;28;20499;-68
2022/04/12 11:52:43;;;;;;;;;;;;;;;;;;5048500;28;21062;-68
2022/04/12 11:55:09;;;;;;;;;;;;;;;;;;5048320;28;19969;-68
2022/04/12 11:57:35;;;;;;;;;;;;;;;;;;5047612;28;20341;-68
2022/04/12 12:00:02;;;;;;;;;;;;;;;;;;5048752;28;19932;-68
2022/04/12 12:02:28;;;;;;;;;;;;;;;;;;5048541;28;20479;-68
2022/04/12 12:04:56;;;;;;;;;;;;;;;;;;5049315;28;20357;-67
2022/04/12 12:07:22;;;;;;;;;;;;;;;;;;5049089;28;19967;-67
2022/04/12 12:09:48;;;;;;;;;;;;;;;;;;5047954;28;19924;-68
2022/04/12 12:12:14;;;;;;;;;;;;;;;;;;5047709;28;20403;-67
2022/04/12 12:14:40;;;;;;;;;;;;;;;;;;5048167;28;19929;-69
2022/04/12 12:17:07;;;;;;;;;;;;;;;;;;5048482;28;20454;-69
2022/04/12 12:19:33;;;;;;;;;;;;;;;;;;5048464;28;19929;-70
2022/04/12 12:22:00;;;;;;;;;;;;;;;;;;5047580;28;20345;-69
2022/04/12 12:24:26;;;;;;;;;;;;;;;;;;5048121;28;19929;-69
2022/04/12 12:26:52;;;;;;;;;;;;;;;;;;5047495;28;19943;-69
2022/04/12 12:29:18;;;;;;;;;;;;;;;;;;5048323;28;19928;-68
2022/04/12 12:31:44;;;;;;;;;;;;;;;;;;5046656;28;19963;-68
2022/04/12 12:34:10;;;;;;;;;;;;;;;;;;5048508;28;19929;-68
2022/04/12 12:36:37;;;;;;;;;;;;;;;;;;5048473;28;19939;-69
2022/04/12 12:39:03;;;;;;;;;;;;;;;;;;5047952;28;20313;-69
2022/04/12 12:41:29;;;;;;;;;;;;;;;;;;5047430;28;19933;-68
2022/04/12 12:43:56;;;;;;;;;;;;;;;;;;5048325;28;19936;-68
2022/04/12 12:46:22;;;;;;;;;;;;;;;;;;5047976;28;19929;-69
2022/04/12 12:48:48;;;;;;;;;;;;;;;;;;5048460;28;19925;-68
2022/04/12 12:51:14;;;;;;;;;;;;;;;;;;5047998;28;19932;-68
2022/04/12 12:53:40;;;;;;;;;;;;;;;;;;5048064;28;19959;-68
2022/04/12 12:56:07;;;;;;;;;;;;;;;;;;5047275;28;19935;-68
2022/04/12 12:58:33;;;;;;;;;;;;;;;;;;5048193;28;19929;-69
2022/04/12 13:00:59;;;;;;;;;;;;;;;;;;5048700;28;19932;-69
2022/04/12 13:03:25;;;;;;;;;;;;;;;;;;5049266;28;19932;-68
2022/04/12 13:05:51;;;;;;;;;;;;;;;;;;5049014;28;19935;-68
2022/04/12 13:08:18;;;;;;;;;;;;;;;;;;5048687;28;20362;-68
2022/04/12 13:10:44;;;;;;;;;;;;;;;;;;5046080;28;19928;-68
2022/04/12 13:13:10;;;;;;;;;;;;;;;;;;5049724;28;20019;-70
2022/04/12 13:15:36;;;;;;;;;;;;;;;;;;5047577;28;19936;-68
2022/04/12 13:18:02;;;;;;;;;;;;;;;;;;5046324;28;19929;-68
2022/04/12 13:20:28;;;;;;;;;;;;;;;;;;5041537;28;19929;-69
2022/04/12 13:22:54;;;;;;;;;;;;;;;;;;5043402;28;20440;-67
2022/04/12 13:25:21;;;;;;;;;;;;;;;;;;5045598;28;20398;-67
2022/04/12 13:27:47;;;;;;;;;;;;;;;;;;5044304;28;20305;-67
2022/04/12 13:30:13;;;;;;;;;;;;;;;;;;5047238;28;19976;-67
2022/04/12 13:32:39;;;;;;;;;;;;;;;;;;5040980;28;20204;-67
2022/04/12 13:35:07;;;;;;;;;;;;;;;;;;5047348;28;19928;-68
2022/04/12 13:37:33;;;;;;;;;;;;;;;;;;5047644;28;19925;-69
2022/04/12 13:39:59;;;;;;;;;;;;;;;;;;5041462;28;20258;-69
2022/04/12 13:42:25;;;;;;;;;;;;;;;;;;5041701;28;19948;-69
2022/04/12 13:44:53;;;;;;;;;;;;;;;;;;5045848;28;19936;-68
2022/04/12 13:47:19;;;;;;;;;;;;;;;;;;5046740;28;20335;-68
2022/04/12 13:49:45;;;;;;;;;;;;;;;;;;5048193;28;20293;-68
2022/04/12 13:52:11;;;;;;;;;;;;;;;;;;5047857;28;20014;-68
2022/04/12 13:54:37;;;;;;;;;;;;;;;;;;5047322;28;19924;-68
2022/04/12 13:57:03;;;;;;;;;;;;;;;;;;5046514;28;19925;-68
2022/04/12 13:59:29;;;;;;;;;;;;;;;;;;5047434;28;20298;-68
2022/04/12 14:01:56;;;;;;;;;;;;;;;;;;5036779;28;19940;-69
2022/04/12 14:04:22;;;;;;;;;;;;;;;;;;5043891;28;19935;-68
2022/04/12 14:06:48;;;;;;;;;;;;;;;;;;5044532;28;19929;-68
2022/04/12 14:09:14;;;;;;;;;;;;;;;;;;5044591;28;19986;-70
2022/04/12 14:11:41;;;;;;;;;;;;;;;;;;5044849;28;19940;-72
2022/04/12 14:14:07;;;;;;;;;;;;;;;;;;5047158;28;20321;-70
2022/04/12 14:16:34;;;;;;;;;;;;;;;;;;5047776;28;20019;-71
2022/04/12 14:19:00;;;;;;;;;;;;;;;;;;5083439;22;19935;-73
2022/04/12 14:21:26;;;;;;;;;;;;;;;;;;5083532;28;19928;-73
2022/04/12 14:23:52;;;;;;;;;;;;;;;;;;5083512;28;19935;-73
2022/04/12 14:26:18;;;;;;;;;;;;;;;;;;5082653;28;19928;-73
2022/04/12 14:28:44;;;;;;;;;;;;;;;;;;5081610;28;19929;-74
2022/04/12 14:31:10;;;;;;;;;;;;;;;;;;5082727;28;19927;-73
2022/04/12 14:33:36;;;;;;;;;;;;;;;;;;5083489;28;20174;-73
2022/04/12 14:36:03;;;;;;;;;;;;;;;;;;5084492;28;19967;-74
2022/04/12 14:38:29;;;;;;;;;;;;;;;;;;5084620;28;19928;-74
2022/04/12 14:40:56;;;;;;;;;;;;;;;;;;5083233;28;19939;-74
2022/04/12 14:43:22;;;;;;;;;;;;;;;;;;5083974;28;20394;-74
2022/04/12 14:45:49;;;;;;;;;;;;;;;;;;5083306;28;19950;-74
2022/04/12 14:48:15;;;;;;;;;;;;;;;;;;5080892;28;20288;-76
2022/04/12 14:50:41;;;;;;;;;;;;;;;;;;5084134;28;19932;-76
2022/04/12 14:53:07;;;;;;;;;;;;;;;;;;5083395;28;19932;-77
2022/04/12 14:55:34;;;;;;;;;;;;;;;;;;5084024;28;20014;-75
2022/04/12 14:58:00;;;;;;;;;;;;;;;;;;5084342;28;19932;-74
2022/04/12 15:00:26;;;;;;;;;;;;;;;;;;4730945;28;10000431;-74
2022/04/12 15:02:52;;;;;;;;;;;;;;;;;;5083412;28;19939;-74
2022/04/12 15:05:18;;;;;;;;;;;;;;;;;;5084014;28;19932;-75
2022/04/12 15:07:44;;;;;;;;;;;;;;;;;;5083743;28;20361;-76
2022/04/12 15:10:10;;;;;;;;;;;;;;;;;;5075552;28;19928;-75
2022/04/12 15:12:36;;;;;;;;;;;;;;;;;;5078759;28;19928;-76
2022/04/12 15:15:05;;;;;;;;;;;;;;;;;;5083711;28;20009;-75
2022/04/12 15:17:31;;;;;;;;;;;;;;;;;;5083953;28;19939;-75
2022/04/12 15:19:57;;;;;;;;;;;;;;;;;;5082889;28;19928;-75
2022/04/12 15:22:23;;;;;;;;;;;;;;;;;;4728986;28;9999917;-73
2022/04/12 15:24:49;;;;;;;;;;;;;;;;;;5081733;28;19928;-72
2022/04/12 15:27:16;;;;;;;;;;;;;;;;;;5080100;28;20382;-74
2022/04/12 15:29:42;;;;;;;;;;;;;;;;;;5082565;28;20447;-75
2022/04/12 15:32:08;;;;;;;;;;;;;;;;;;5078312;28;20309;-74
2022/04/12 15:34:34;;;;;;;;;;;;;;;;;;5083122;28;19932;-76
2022/04/12 15:37:00;;;;;;;;;;;;;;;;;;5090597;28;19985;-76
2022/04/12 15:39:26;;;;;;;;;;;;;;;;;;5083214;28;19924;-76
2022/04/12 15:41:52;;;;;;;;;;;;;;;;;;5083631;28;19928;-76
2022/04/12 15:44:18;;;;;;;;;;;;;;;;;;5084465;28;19932;-76
2022/04/12 15:46:44;;;;;;;;;;;;;;;;;;5081475;28;19928;-75
2022/04/12 15:49:11;;;;;;;;;;;;;;;;;;5083106;28;19928;-74
2022/04/12 15:51:37;;;;;;;;;;;;;;;;;;5083200;28;19928;-74
2022/04/12 15:54:03;;;;;;;;;;;;;;;;;;5083405;28;19924;-75
2022/04/12 15:56:29;;;;;;;;;;;;;;;;;;5082013;28;19935;-75
2022/04/12 15:58:55;;;;;;;;;;;;;;;;;;5085792;28;19984;-75
2022/04/12 16:01:21;;;;;;;;;;;;;;;;;;5084623;28;19932;-75
2022/04/12 16:03:47;;;;;;;;;;;;;;;;;;5085634;28;19974;-73
2022/04/12 16:06:14;;;;;;;;;;;;;;;;;;5086603;28;20046;-76
2022/04/12 16:08:40;;;;;;;;;;;;;;;;;;5087950;28;20329;-76
2022/04/12 16:11:08;;;;;;;;;;;;;;;;;;5087895;28;19944;-75
2022/04/12 16:13:34;;;;;;;;;;;;;;;;;;5084948;28;19953;-75
2022/04/12 16:16:01;;;;;;;;;;;;;;;;;;5085180;28;19959;-75
2022/04/12 16:18:27;;;;;;;;;;;;;;;;;;5087355;28;20048;-74
2022/04/12 16:20:53;;;;;;;;;;;;;;;;;;5084434;28;19958;-74
2022/04/12 16:23:19;;;;;;;;;;;;;;;;;;5082505;28;19956;-74
2022/04/12 16:25:46;;;;;;;;;;;;;;;;;;5087568;28;20417;-76
2022/04/12 16:28:14;;;;;;;;;;;;;;;;;;5087994;28;19947;-76
2022/04/12 16:30:40;;;;;;;;;;;;;;;;;;5084787;28;19932;-76
2022/04/12 16:33:06;;;;;;;;;;;;;;;;;;5088108;28;20401;-74
2022/04/12 16:35:32;;;;;;;;;;;;;;;;;;5089173;28;20386;-76
2022/04/12 16:37:58;;;;;;;;;;;;;;;;;;5095575;28;19968;-76
2022/04/12 16:40:24;;;;;;;;;;;;;;;;;;5090094;28;19955;-77